Terminal Aerodrome Forecast
Issued by NWS Chicago, IL

Home | Current Version | Previous Version | Text Only | Print | Product List | Glossary Off
Versions: 1 2 3 4 5 6 7 8 9 10 11 12 13 14 15 16 17 18 19 20 21 22 23

220
FTUS43 KLOT 232324
TAFRFD
TAF
KRFD 232324Z 2400/2424 20006KT P6SM SCT250
     FM241300 20013G21KT P6SM SCT200
     FM241700 20017G29KT P6SM SCT100 SCT200
     FM242300 24015KT P6SM SCT080 BKN120=

USA.gov is the U.S. government's official web portal to all federal, state and local government web resources and services.